sensor_id;sensor_type;location;lat;lon;timestamp;temperature;humidity
67354;SHT30;54238;52.278;21.056;2023-06-10T00:01:44;20.92;53.73
67354;SHT30;54238;52.278;21.056;2023-06-10T00:04:15;20.86;53.13
67354;SHT30;54238;52.278;21.056;2023-06-10T00:06:44;20.81;52.88
67354;SHT30;54238;52.278;21.056;2023-06-10T00:09:17;20.77;52.24
67354;SHT30;54238;52.278;21.056;2023-06-10T00:11:49;20.72;51.85
67354;SHT30;54238;52.278;21.056;2023-06-10T00:14:21;20.68;51.41
67354;SHT30;54238;52.278;21.056;2023-06-10T00:16:51;20.63;51.23
67354;SHT30;54238;52.278;21.056;2023-06-10T00:19:19;20.57;51.13
67354;SHT30;54238;52.278;21.056;2023-06-10T00:21:49;20.52;50.96
67354;SHT30;54238;52.278;21.056;2023-06-10T00:24:20;20.46;50.91
67354;SHT30;54238;52.278;21.056;2023-06-10T00:26:47;20.41;50.81
67354;SHT30;54238;52.278;21.056;2023-06-10T00:29:15;20.36;50.51
67354;SHT30;54238;52.278;21.056;2023-06-10T00:31:47;20.32;50.30
67354;SHT30;54238;52.278;21.056;2023-06-10T00:34:16;20.27;50.25
67354;SHT30;54238;52.278;21.056;2023-06-10T00:36:48;20.22;50.09
67354;SHT30;54238;52.278;21.056;2023-06-10T00:39:15;20.16;49.84
67354;SHT30;54238;52.278;21.056;2023-06-10T00:41:47;20.13;49.84
67354;SHT30;54238;52.278;21.056;2023-06-10T00:44:19;20.09;49.42
67354;SHT30;54238;52.278;21.056;2023-06-10T00:46:49;20.01;49.07
67354;SHT30;54238;52.278;21.056;2023-06-10T00:49:20;19.93;48.86
67354;SHT30;54238;52.278;21.056;2023-06-10T00:51:50;19.90;48.34
67354;SHT30;54238;52.278;21.056;2023-06-10T00:54:28;19.86;48.07
67354;SHT30;54238;52.278;21.056;2023-06-10T00:56:57;19.83;47.85
67354;SHT30;54238;52.278;21.056;2023-06-10T00:59:28;19.80;47.73
67354;SHT30;54238;52.278;21.056;2023-06-10T01:02:01;19.76;47.70
67354;SHT30;54238;52.278;21.056;2023-06-10T01:04:29;19.74;47.52
67354;SHT30;54238;52.278;21.056;2023-06-10T01:13:05;19.61;47.34
67354;SHT30;54238;52.278;21.056;2023-06-10T01:15:40;19.58;47.27
67354;SHT30;54238;52.278;21.056;2023-06-10T01:18:08;19.55;47.13
67354;SHT30;54238;52.278;21.056;2023-06-10T01:20:42;19.52;46.94
67354;SHT30;54238;52.278;21.056;2023-06-10T01:23:15;19.49;46.97
67354;SHT30;54238;52.278;21.056;2023-06-10T01:25:49;19.47;46.95
67354;SHT30;54238;52.278;21.056;2023-06-10T01:34:07;19.38;46.91
67354;SHT30;54238;52.278;21.056;2023-06-10T01:36:41;19.36;46.91
67354;SHT30;54238;52.278;21.056;2023-06-10T01:39:19;19.30;46.83
67354;SHT30;54238;52.278;21.056;2023-06-10T01:41:54;19.25;47.06
67354;SHT30;54238;52.278;21.056;2023-06-10T01:44:23;19.22;47.02
67354;SHT30;54238;52.278;21.056;2023-06-10T01:46:51;19.18;47.01
67354;SHT30;54238;52.278;21.056;2023-06-10T01:49:18;19.15;47.12
67354;SHT30;54238;52.278;21.056;2023-06-10T01:51:45;19.14;47.17
67354;SHT30;54238;52.278;21.056;2023-06-10T01:54:15;19.12;47.31
67354;SHT30;54238;52.278;21.056;2023-06-10T01:56:45;19.12;47.47
67354;SHT30;54238;52.278;21.056;2023-06-10T01:59:12;19.10;47.48
67354;SHT30;54238;52.278;21.056;2023-06-10T02:01:48;19.06;47.49
67354;SHT30;54238;52.278;21.056;2023-06-10T02:04:23;19.02;47.78
67354;SHT30;54238;52.278;21.056;2023-06-10T02:06:50;18.99;47.85
67354;SHT30;54238;52.278;21.056;2023-06-10T02:09:20;18.93;48.04
67354;SHT30;54238;52.278;21.056;2023-06-10T02:11:49;18.88;48.22
67354;SHT30;54238;52.278;21.056;2023-06-10T02:14:18;18.85;48.34
67354;SHT30;54238;52.278;21.056;2023-06-10T02:16:55;18.80;48.57
67354;SHT30;54238;52.278;21.056;2023-06-10T02:19:24;18.76;48.76
67354;SHT30;54238;52.278;21.056;2023-06-10T02:21:54;18.70;48.95
67354;SHT30;54238;52.278;21.056;2023-06-10T02:24:25;18.66;49.20
67354;SHT30;54238;52.278;21.056;2023-06-10T02:26:55;18.65;49.36
67354;SHT30;54238;52.278;21.056;2023-06-10T02:29:22;18.64;49.45
67354;SHT30;54238;52.278;21.056;2023-06-10T02:31:51;18.63;49.50
67354;SHT30;54238;52.278;21.056;2023-06-10T02:34:21;18.60;49.65
67354;SHT30;54238;52.278;21.056;2023-06-10T02:36:55;18.58;49.93
67354;SHT30;54238;52.278;21.056;2023-06-10T02:39:24;18.53;50.07
67354;SHT30;54238;52.278;21.056;2023-06-10T02:41:54;18.49;50.30
67354;SHT30;54238;52.278;21.056;2023-06-10T02:44:21;18.48;50.50
67354;SHT30;54238;52.278;21.056;2023-06-10T02:46:50;18.45;50.59
67354;SHT30;54238;52.278;21.056;2023-06-10T02:49:22;18.47;50.78
67354;SHT30;54238;52.278;21.056;2023-06-10T02:51:54;18.45;50.90
67354;SHT30;54238;52.278;21.056;2023-06-10T02:54:24;18.42;50.99
67354;SHT30;54238;52.278;21.056;2023-06-10T02:56:51;18.42;51.10
67354;SHT30;54238;52.278;21.056;2023-06-10T02:59:19;18.45;51.21
67354;SHT30;54238;52.278;21.056;2023-06-10T03:01:46;18.46;51.30
67354;SHT30;54238;52.278;21.056;2023-06-10T03:04:18;18.46;51.48
67354;SHT30;54238;52.278;21.056;2023-06-10T03:06:48;18.47;51.49
67354;SHT30;54238;52.278;21.056;2023-06-10T03:09:15;18.45;51.56
67354;SHT30;54238;52.278;21.056;2023-06-10T03:11:45;18.45;51.66
67354;SHT30;54238;52.278;21.056;2023-06-10T03:14:15;18.47;51.74
67354;SHT30;54238;52.278;21.056;2023-06-10T03:16:42;18.46;51.87
67354;SHT30;54238;52.278;21.056;2023-06-10T03:19:16;18.45;51.95
67354;SHT30;54238;52.278;21.056;2023-06-10T03:21:49;18.46;52.06
67354;SHT30;54238;52.278;21.056;2023-06-10T03:24:34;18.48;52.13
67354;SHT30;54238;52.278;21.056;2023-06-10T03:27:02;18.50;52.12
67354;SHT30;54238;52.278;21.056;2023-06-10T03:29:35;18.52;52.21
67354;SHT30;54238;52.278;21.056;2023-06-10T03:32:07;18.54;52.26
67354;SHT30;54238;52.278;21.056;2023-06-10T03:34:35;18.58;52.23
67354;SHT30;54238;52.278;21.056;2023-06-10T03:37:03;18.63;52.20
67354;SHT30;54238;52.278;21.056;2023-06-10T03:39:34;18.67;52.18
67354;SHT30;54238;52.278;21.056;2023-06-10T03:42:02;18.70;52.16
67354;SHT30;54238;52.278;21.056;2023-06-10T03:44:32;18.70;52.24
67354;SHT30;54238;52.278;21.056;2023-06-10T03:47:03;18.75;52.24
67354;SHT30;54238;52.278;21.056;2023-06-10T03:49:34;18.79;52.14
67354;SHT30;54238;52.278;21.056;2023-06-10T03:52:04;18.85;52.04
67354;SHT30;54238;52.278;21.056;2023-06-10T03:54:33;18.90;51.95
67354;SHT30;54238;52.278;21.056;2023-06-10T03:57:01;18.94;51.86
67354;SHT30;54238;52.278;21.056;2023-06-10T03:59:30;18.99;51.92
67354;SHT30;54238;52.278;21.056;2023-06-10T04:02:02;19.02;51.95
67354;SHT30;54238;52.278;21.056;2023-06-10T04:04:34;19.08;51.74
67354;SHT30;54238;52.278;21.056;2023-06-10T04:07:05;19.12;51.79
67354;SHT30;54238;52.278;21.056;2023-06-10T04:09:36;19.15;51.74
67354;SHT30;54238;52.278;21.056;2023-06-10T04:12:04;19.19;51.77
67354;SHT30;54238;52.278;21.056;2023-06-10T04:14:35;19.22;51.80
67354;SHT30;54238;52.278;21.056;2023-06-10T04:17:12;19.24;51.86
67354;SHT30;54238;52.278;21.056;2023-06-10T04:19:40;19.25;51.74
67354;SHT30;54238;52.278;21.056;2023-06-10T04:22:14;19.29;51.68
67354;SHT30;54238;52.278;21.056;2023-06-10T04:24:47;19.31;51.72
67354;SHT30;54238;52.278;21.056;2023-06-10T04:27:14;19.34;51.57
67354;SHT30;54238;52.278;21.056;2023-06-10T04:29:45;19.38;51.65
67354;SHT30;54238;52.278;21.056;2023-06-10T04:32:15;19.38;51.73
67354;SHT30;54238;52.278;21.056;2023-06-10T04:34:45;19.41;51.80
67354;SHT30;54238;52.278;21.056;2023-06-10T04:37:12;19.44;51.84
67354;SHT30;54238;52.278;21.056;2023-06-10T04:39:39;19.48;51.74
67354;SHT30;54238;52.278;21.056;2023-06-10T04:42:06;19.52;51.72
67354;SHT30;54238;52.278;21.056;2023-06-10T04:47:36;19.63;51.79
67354;SHT30;54238;52.278;21.056;2023-06-10T04:50:05;19.67;51.71
67354;SHT30;54238;52.278;21.056;2023-06-10T04:52:38;19.67;51.72
67354;SHT30;54238;52.278;21.056;2023-06-10T04:55:08;19.69;51.74
67354;SHT30;54238;52.278;21.056;2023-06-10T04:57:40;19.72;51.70
67354;SHT30;54238;52.278;21.056;2023-06-10T05:00:09;19.75;51.50
67354;SHT30;54238;52.278;21.056;2023-06-10T05:02:38;19.79;51.33
67354;SHT30;54238;52.278;21.056;2023-06-10T05:05:06;19.83;51.25
67354;SHT30;54238;52.278;21.056;2023-06-10T05:07:38;19.86;51.24
67354;SHT30;54238;52.278;21.056;2023-06-10T05:10:08;19.90;51.14
67354;SHT30;54238;52.278;21.056;2023-06-10T05:12:42;19.94;51.00
67354;SHT30;54238;52.278;21.056;2023-06-10T05:15:19;19.95;51.04
67354;SHT30;54238;52.278;21.056;2023-06-10T05:17:46;19.98;51.20
67354;SHT30;54238;52.278;21.056;2023-06-10T05:20:13;19.99;51.21
67354;SHT30;54238;52.278;21.056;2023-06-10T05:22:42;20.00;51.30
67354;SHT30;54238;52.278;21.056;2023-06-10T05:25:12;20.00;51.30
67354;SHT30;54238;52.278;21.056;2023-06-10T05:27:44;19.99;51.37
67354;SHT30;54238;52.278;21.056;2023-06-10T05:30:11;20.00;51.30
67354;SHT30;54238;52.278;21.056;2023-06-10T05:32:44;20.01;51.45
67354;SHT30;54238;52.278;21.056;2023-06-10T05:35:14;20.03;51.49
67354;SHT30;54238;52.278;21.056;2023-06-10T05:37:43;20.07;51.45
67354;SHT30;54238;52.278;21.056;2023-06-10T05:40:18;20.09;51.51
67354;SHT30;54238;52.278;21.056;2023-06-10T05:42:52;20.11;51.39
67354;SHT30;54238;52.278;21.056;2023-06-10T05:45:21;20.18;51.39
67354;SHT30;54238;52.278;21.056;2023-06-10T05:47:51;20.21;51.29
67354;SHT30;54238;52.278;21.056;2023-06-10T05:50:20;20.26;51.18
67354;SHT30;54238;52.278;21.056;2023-06-10T05:52:47;20.32;50.91
67354;SHT30;54238;52.278;21.056;2023-06-10T05:55:16;20.36;50.96
67354;SHT30;54238;52.278;21.056;2023-06-10T05:57:49;20.44;50.84
67354;SHT30;54238;52.278;21.056;2023-06-10T06:00:28;20.51;50.63
67354;SHT30;54238;52.278;21.056;2023-06-10T06:02:59;20.56;50.59
67354;SHT30;54238;52.278;21.056;2023-06-10T06:05:27;20.65;50.85
67354;SHT30;54238;52.278;21.056;2023-06-10T06:07:59;20.75;50.76
67354;SHT30;54238;52.278;21.056;2023-06-10T06:10:29;20.84;50.47
67354;SHT30;54238;52.278;21.056;2023-06-10T06:12:59;20.91;50.31
67354;SHT30;54238;52.278;21.056;2023-06-10T06:15:34;20.99;50.43
67354;SHT30;54238;52.278;21.056;2023-06-10T06:18:06;21.08;50.41
67354;SHT30;54238;52.278;21.056;2023-06-10T06:20:39;21.15;50.32
67354;SHT30;54238;52.278;21.056;2023-06-10T06:23:07;21.20;49.85
67354;SHT30;54238;52.278;21.056;2023-06-10T06:25:36;21.23;49.67
67354;SHT30;54238;52.278;21.056;2023-06-10T06:28:09;21.27;49.65
67354;SHT30;54238;52.278;21.056;2023-06-10T06:30:50;21.34;49.55
67354;SHT30;54238;52.278;21.056;2023-06-10T06:33:23;21.41;49.28
67354;SHT30;54238;52.278;21.056;2023-06-10T06:35:50;21.46;49.58
67354;SHT30;54238;52.278;21.056;2023-06-10T06:38:20;21.56;49.62
67354;SHT30;54238;52.278;21.056;2023-06-10T06:40:48;21.67;49.50
67354;SHT30;54238;52.278;21.056;2023-06-10T06:43:15;21.80;49.26
67354;SHT30;54238;52.278;21.056;2023-06-10T06:45:45;21.95;49.12
67354;SHT30;54238;52.278;21.056;2023-06-10T06:48:15;22.08;49.02
67354;SHT30;54238;52.278;21.056;2023-06-10T06:50:54;22.22;48.93
67354;SHT30;54238;52.278;21.056;2023-06-10T06:53:24;22.34;48.66
67354;SHT30;54238;52.278;21.056;2023-06-10T06:55:52;22.41;48.09
67354;SHT30;54238;52.278;21.056;2023-06-10T06:58:21;22.46;47.90
67354;SHT30;54238;52.278;21.056;2023-06-10T07:00:50;22.54;47.95
67354;SHT30;54238;52.278;21.056;2023-06-10T07:03:22;22.64;47.84
67354;SHT30;54238;52.278;21.056;2023-06-10T07:05:54;22.73;47.92
67354;SHT30;54238;52.278;21.056;2023-06-10T07:08:21;22.84;47.70
67354;SHT30;54238;52.278;21.056;2023-06-10T07:10:48;22.90;47.18
67354;SHT30;54238;52.278;21.056;2023-06-10T07:13:16;22.95;46.92
67354;SHT30;54238;52.278;21.056;2023-06-10T07:15:50;23.00;47.06
67354;SHT30;54238;52.278;21.056;2023-06-10T07:18:20;23.12;47.12
67354;SHT30;54238;52.278;21.056;2023-06-10T07:20:51;23.26;46.69
67354;SHT30;54238;52.278;21.056;2023-06-10T07:39:14;24.30;45.13
67354;SHT30;54238;52.278;21.056;2023-06-10T07:41:44;24.42;44.91
67354;SHT30;54238;52.278;21.056;2023-06-10T07:44:15;24.53;44.95
67354;SHT30;54238;52.278;21.056;2023-06-10T07:46:42;24.66;44.59
67354;SHT30;54238;52.278;21.056;2023-06-10T07:49:09;24.75;44.54
67354;SHT30;54238;52.278;21.056;2023-06-10T07:51:41;24.85;44.57
67354;SHT30;54238;52.278;21.056;2023-06-10T07:54:13;24.97;44.60
67354;SHT30;54238;52.278;21.056;2023-06-10T07:56:43;25.09;44.09
67354;SHT30;54238;52.278;21.056;2023-06-10T07:59:13;25.16;43.69
67354;SHT30;54238;52.278;21.056;2023-06-10T08:01:45;25.21;43.24
67354;SHT30;54238;52.278;21.056;2023-06-10T08:04:18;25.25;42.89
67354;SHT30;54238;52.278;21.056;2023-06-10T08:06:51;25.26;43.07
67354;SHT30;54238;52.278;21.056;2023-06-10T08:09:20;25.34;43.13
67354;SHT30;54238;52.278;21.056;2023-06-10T08:11:50;25.44;43.19
67354;SHT30;54238;52.278;21.056;2023-06-10T08:14:22;25.57;42.77
67354;SHT30;54238;52.278;21.056;2023-06-10T08:16:54;25.66;42.22
67354;SHT30;54238;52.278;21.056;2023-06-10T08:19:25;25.74;41.72
67354;SHT30;54238;52.278;21.056;2023-06-10T08:21:52;25.78;42.13
67354;SHT30;54238;52.278;21.056;2023-06-10T08:24:22;25.83;42.05
67354;SHT30;54238;52.278;21.056;2023-06-10T08:26:53;25.85;41.81
67354;SHT30;54238;52.278;21.056;2023-06-10T08:29:25;25.92;41.01
67354;SHT30;54238;52.278;21.056;2023-06-10T08:31:56;25.89;40.83
67354;SHT30;54238;52.278;21.056;2023-06-10T08:34:23;25.91;40.85
67354;SHT30;54238;52.278;21.056;2023-06-10T08:36:51;25.90;40.62
67354;SHT30;54238;52.278;21.056;2023-06-10T08:39:22;25.88;40.04
67354;SHT30;54238;52.278;21.056;2023-06-10T08:42:11;25.89;40.54
67354;SHT30;54238;52.278;21.056;2023-06-10T08:45:02;26.07;40.72
67354;SHT30;54238;52.278;21.056;2023-06-10T08:47:33;26.13;40.27
67354;SHT30;54238;52.278;21.056;2023-06-10T08:50:08;26.19;40.13
67354;SHT30;54238;52.278;21.056;2023-06-10T08:52:42;26.20;39.59
67354;SHT30;54238;52.278;21.056;2023-06-10T08:55:12;26.23;39.92
67354;SHT30;54238;52.278;21.056;2023-06-10T09:00:53;26.40;39.68
67354;SHT30;54238;52.278;21.056;2023-06-10T09:03:25;26.45;39.07
67354;SHT30;54238;52.278;21.056;2023-06-10T09:05:54;26.49;38.48
67354;SHT30;54238;52.278;21.056;2023-06-10T09:08:25;26.50;38.99
67354;SHT30;54238;52.278;21.056;2023-06-10T09:10:52;26.60;38.87
67354;SHT30;54238;52.278;21.056;2023-06-10T09:13:19;26.66;38.45
67354;SHT30;54238;52.278;21.056;2023-06-10T09:15:49;26.67;38.16
67354;SHT30;54238;52.278;21.056;2023-06-10T09:18:18;26.73;37.72
67354;SHT30;54238;52.278;21.056;2023-06-10T09:20:45;26.76;37.54
67354;SHT30;54238;52.278;21.056;2023-06-10T09:23:12;26.84;37.22
67354;SHT30;54238;52.278;21.056;2023-06-10T09:25:42;26.87;37.18
67354;SHT30;54238;52.278;21.056;2023-06-10T09:28:14;27.03;36.77
67354;SHT30;54238;52.278;21.056;2023-06-10T09:30:43;27.10;36.15
67354;SHT30;54238;52.278;21.056;2023-06-10T09:33:15;27.23;36.53
67354;SHT30;54238;52.278;21.056;2023-06-10T09:35:47;27.47;36.44
67354;SHT30;54238;52.278;21.056;2023-06-10T09:38:20;27.69;35.76
67354;SHT30;54238;52.278;21.056;2023-06-10T09:40:53;27.81;35.25
67354;SHT30;54238;52.278;21.056;2023-06-10T09:43:22;27.84;34.42
67354;SHT30;54238;52.278;21.056;2023-06-10T09:45:52;27.81;34.66
67354;SHT30;54238;52.278;21.056;2023-06-10T09:48:24;27.93;34.20
67354;SHT30;54238;52.278;21.056;2023-06-10T09:50:53;28.13;33.21
67354;SHT30;54238;52.278;21.056;2023-06-10T09:53:22;28.32;31.84
67354;SHT30;54238;52.278;21.056;2023-06-10T09:55:52;28.40;31.53
67354;SHT30;54238;52.278;21.056;2023-06-10T09:58:36;28.53;31.58
67354;SHT30;54238;52.278;21.056;2023-06-10T10:01:12;28.48;30.98
67354;SHT30;54238;52.278;21.056;2023-06-10T10:03:47;28.41;30.15
67354;SHT30;54238;52.278;21.056;2023-06-10T10:06:20;28.41;29.87
67354;SHT30;54238;52.278;21.056;2023-06-10T10:30:15;30.44;25.97
67354;SHT30;54238;52.278;21.056;2023-06-10T10:32:56;30.66;26.39
67354;SHT30;54238;52.278;21.056;2023-06-10T10:35:32;30.90;26.19
67354;SHT30;54238;52.278;21.056;2023-06-10T10:38:00;31.11;26.25
67354;SHT30;54238;52.278;21.056;2023-06-10T10:40:34;31.23;26.24
67354;SHT30;54238;52.278;21.056;2023-06-10T10:43:04;31.47;26.55
67354;SHT30;54238;52.278;21.056;2023-06-10T10:45:40;31.69;25.95
67354;SHT30;54238;52.278;21.056;2023-06-10T10:48:10;31.66;25.63
67354;SHT30;54238;52.278;21.056;2023-06-10T10:50:42;31.78;26.03
67354;SHT30;54238;52.278;21.056;2023-06-10T10:53:12;32.04;25.82
67354;SHT30;54238;52.278;21.056;2023-06-10T10:55:57;32.37;25.78
67354;SHT30;54238;52.278;21.056;2023-06-10T10:58:28;32.52;24.35
67354;SHT30;54238;52.278;21.056;2023-06-10T11:00:58;32.46;24.76
67354;SHT30;54238;52.278;21.056;2023-06-10T11:03:29;32.59;25.07
67354;SHT30;54238;52.278;21.056;2023-06-10T11:06:17;32.58;25.44
67354;SHT30;54238;52.278;21.056;2023-06-10T11:08:48;32.72;25.72
67354;SHT30;54238;52.278;21.056;2023-06-10T11:13:58;33.19;25.22
67354;SHT30;54238;52.278;21.056;2023-06-10T11:16:31;33.48;24.48
67354;SHT30;54238;52.278;21.056;2023-06-10T11:19:09;33.55;24.01
67354;SHT30;54238;52.278;21.056;2023-06-10T11:21:45;33.71;24.24
67354;SHT30;54238;52.278;21.056;2023-06-10T11:24:36;33.88;24.60
67354;SHT30;54238;52.278;21.056;2023-06-10T11:32:35;34.27;23.38
67354;SHT30;54238;52.278;21.056;2023-06-10T11:35:02;34.30;23.00
67354;SHT30;54238;52.278;21.056;2023-06-10T11:37:34;34.31;22.99
67354;SHT30;54238;52.278;21.056;2023-06-10T11:40:04;34.43;22.91
67354;SHT30;54238;52.278;21.056;2023-06-10T11:42:43;34.73;23.16
67354;SHT30;54238;52.278;21.056;2023-06-10T11:45:14;34.97;22.81
67354;SHT30;54238;52.278;21.056;2023-06-10T11:48:01;34.89;22.63
67354;SHT30;54238;52.278;21.056;2023-06-10T11:50:31;35.01;23.04
67354;SHT30;54238;52.278;21.056;2023-06-10T11:53:07;35.22;22.59
67354;SHT30;54238;52.278;21.056;2023-06-10T11:55:46;35.39;22.22
67354;SHT30;54238;52.278;21.056;2023-06-10T11:58:18;35.44;21.96
67354;SHT30;54238;52.278;21.056;2023-06-10T12:00:55;35.41;21.43
67354;SHT30;54238;52.278;21.056;2023-06-10T12:03:35;35.41;20.38
67354;SHT30;54238;52.278;21.056;2023-06-10T12:06:06;35.52;20.25
67354;SHT30;54238;52.278;21.056;2023-06-10T12:08:34;35.72;21.54
67354;SHT30;54238;52.278;21.056;2023-06-10T12:11:09;35.78;22.50
67354;SHT30;54238;52.278;21.056;2023-06-10T12:13:48;35.42;23.44
67354;SHT30;54238;52.278;21.056;2023-06-10T12:16:16;34.76;24.32
67354;SHT30;54238;52.278;21.056;2023-06-10T12:18:44;34.31;24.59
67354;SHT30;54238;52.278;21.056;2023-06-10T12:21:19;34.18;24.69
67354;SHT30;54238;52.278;21.056;2023-06-10T12:24:02;34.41;24.77
67354;SHT30;54238;52.278;21.056;2023-06-10T12:26:42;34.48;24.93
67354;SHT30;54238;52.278;21.056;2023-06-10T12:32:01;33.59;25.85
67354;SHT30;54238;52.278;21.056;2023-06-10T12:34:38;32.96;26.47
67354;SHT30;54238;52.278;21.056;2023-06-10T12:37:11;32.65;26.76
67354;SHT30;54238;52.278;21.056;2023-06-10T12:39:40;32.90;26.68
67354;SHT30;54238;52.278;21.056;2023-06-10T12:42:11;33.34;26.41
67354;SHT30;54238;52.278;21.056;2023-06-10T12:44:42;33.69;26.16
67354;SHT30;54238;52.278;21.056;2023-06-10T12:47:11;34.17;25.86
67354;SHT30;54238;52.278;21.056;2023-06-10T12:49:44;34.55;25.58
67354;SHT30;54238;52.278;21.056;2023-06-10T12:52:13;34.54;25.77
67354;SHT30;54238;52.278;21.056;2023-06-10T12:54:40;34.53;25.73
67354;SHT30;54238;52.278;21.056;2023-06-10T12:57:09;34.42;25.66
67354;SHT30;54238;52.278;21.056;2023-06-10T12:59:39;34.43;25.93
67354;SHT30;54238;52.278;21.056;2023-06-10T13:02:12;34.53;26.02
67354;SHT30;54238;52.278;21.056;2023-06-10T13:04:43;34.51;26.04
67354;SHT30;54238;52.278;21.056;2023-06-10T13:07:13;34.54;25.55
67354;SHT30;54238;52.278;21.056;2023-06-10T13:09:43;34.34;25.33
67354;SHT30;54238;52.278;21.056;2023-06-10T13:12:16;34.41;25.37
67354;SHT30;54238;52.278;21.056;2023-06-10T13:14:45;34.67;25.67
67354;SHT30;54238;52.278;21.056;2023-06-10T13:17:17;35.01;25.82
67354;SHT30;54238;52.278;21.056;2023-06-10T13:19:51;35.40;25.45
67354;SHT30;54238;52.278;21.056;2023-06-10T13:22:20;35.77;24.93
67354;SHT30;54238;52.278;21.056;2023-06-10T13:24:51;35.99;24.17
67354;SHT30;54238;52.278;21.056;2023-06-10T13:27:18;36.09;24.27
67354;SHT30;54238;52.278;21.056;2023-06-10T13:29:48;36.17;24.29
67354;SHT30;54238;52.278;21.056;2023-06-10T13:32:15;36.18;24.07
67354;SHT30;54238;52.278;21.056;2023-06-10T13:34:44;36.23;23.85
67354;SHT30;54238;52.278;21.056;2023-06-10T13:37:14;36.24;23.06
67354;SHT30;54238;52.278;21.056;2023-06-10T13:39:48;36.17;22.53
67354;SHT30;54238;52.278;21.056;2023-06-10T13:42:20;36.14;22.49
67354;SHT30;54238;52.278;21.056;2023-06-10T13:44:49;36.30;23.17
67354;SHT30;54238;52.278;21.056;2023-06-10T13:47:20;36.42;22.50
67354;SHT30;54238;52.278;21.056;2023-06-10T13:49:52;36.50;22.76
67354;SHT30;54238;52.278;21.056;2023-06-10T13:52:19;36.24;23.40
67354;SHT30;54238;52.278;21.056;2023-06-10T13:54:46;35.77;24.19
67354;SHT30;54238;52.278;21.056;2023-06-10T13:57:17;35.33;24.40
67354;SHT30;54238;52.278;21.056;2023-06-10T13:59:45;34.54;24.37
67354;SHT30;54238;52.278;21.056;2023-06-10T14:02:15;34.07;25.20
67354;SHT30;54238;52.278;21.056;2023-06-10T14:04:47;34.17;25.32
67354;SHT30;54238;52.278;21.056;2023-06-10T14:07:16;34.28;24.94
67354;SHT30;54238;52.278;21.056;2023-06-10T14:09:46;34.23;24.64
67354;SHT30;54238;52.278;21.056;2023-06-10T14:12:18;34.47;24.84
67354;SHT30;54238;52.278;21.056;2023-06-10T14:14:47;34.79;25.03
67354;SHT30;54238;52.278;21.056;2023-06-10T14:17:16;34.65;24.95
67354;SHT30;54238;52.278;21.056;2023-06-10T14:19:49;34.12;25.17
67354;SHT30;54238;52.278;21.056;2023-06-10T14:22:22;33.59;24.94
67354;SHT30;54238;52.278;21.056;2023-06-10T14:24:49;33.50;25.65
67354;SHT30;54238;52.278;21.056;2023-06-10T14:27:21;33.71;25.83
67354;SHT30;54238;52.278;21.056;2023-06-10T14:29:54;33.81;25.99
67354;SHT30;54238;52.278;21.056;2023-06-10T14:32:29;34.08;26.16
67354;SHT30;54238;52.278;21.056;2023-06-10T14:35:01;34.23;24.96
67354;SHT30;54238;52.278;21.056;2023-06-10T14:37:31;34.18;24.32
67354;SHT30;54238;52.278;21.056;2023-06-10T14:40:00;33.68;24.20
67354;SHT30;54238;52.278;21.056;2023-06-10T14:42:30;33.01;24.72
67354;SHT30;54238;52.278;21.056;2023-06-10T14:44:58;32.40;26.19
67354;SHT30;54238;52.278;21.056;2023-06-10T14:47:29;31.82;27.30
67354;SHT30;54238;52.278;21.056;2023-06-10T14:50:01;31.45;28.02
67354;SHT30;54238;52.278;21.056;2023-06-10T14:52:33;31.53;28.40
67354;SHT30;54238;52.278;21.056;2023-06-10T14:55:05;31.75;28.52
67354;SHT30;54238;52.278;21.056;2023-06-10T14:57:35;32.03;28.48
67354;SHT30;54238;52.278;21.056;2023-06-10T15:00:09;32.16;28.65
67354;SHT30;54238;52.278;21.056;2023-06-10T15:02:44;32.01;28.84
67354;SHT30;54238;52.278;21.056;2023-06-10T15:05:15;31.62;28.54
67354;SHT30;54238;52.278;21.056;2023-06-10T15:07:46;31.05;29.01
67354;SHT30;54238;52.278;21.056;2023-06-10T15:10:15;30.51;30.00
67354;SHT30;54238;52.278;21.056;2023-06-10T15:12:47;29.98;30.79
67354;SHT30;54238;52.278;21.056;2023-06-10T15:15:22;29.60;31.49
67354;SHT30;54238;52.278;21.056;2023-06-10T15:17:50;29.72;31.90
67354;SHT30;54238;52.278;21.056;2023-06-10T15:20:22;29.88;31.91
67354;SHT30;54238;52.278;21.056;2023-06-10T15:22:49;29.80;31.61
67354;SHT30;54238;52.278;21.056;2023-06-10T15:25:17;29.81;31.38
67354;SHT30;54238;52.278;21.056;2023-06-10T15:27:47;29.69;31.23
67354;SHT30;54238;52.278;21.056;2023-06-10T15:30:16;29.42;31.40
67354;SHT30;54238;52.278;21.056;2023-06-10T15:32:43;29.26;32.00
67354;SHT30;54238;52.278;21.056;2023-06-10T15:35:11;29.38;32.27
67354;SHT30;54238;52.278;21.056;2023-06-10T15:37:43;29.65;32.42
67354;SHT30;54238;52.278;21.056;2023-06-10T15:40:10;30.02;32.25
67354;SHT30;54238;52.278;21.056;2023-06-10T15:42:43;30.24;32.05
67354;SHT30;54238;52.278;21.056;2023-06-10T15:45:19;30.48;31.83
67354;SHT30;54238;52.278;21.056;2023-06-10T15:47:49;30.38;30.63
67354;SHT30;54238;52.278;21.056;2023-06-10T15:50:16;29.99;31.34
67354;SHT30;54238;52.278;21.056;2023-06-10T15:52:46;29.63;32.22
67354;SHT30;54238;52.278;21.056;2023-06-10T15:55:18;29.27;33.11
67354;SHT30;54238;52.278;21.056;2023-06-10T15:57:45;28.94;33.79
67354;SHT30;54238;52.278;21.056;2023-06-10T16:00:15;28.62;33.94
67354;SHT30;54238;52.278;21.056;2023-06-10T16:02:48;28.37;34.28
67354;SHT30;54238;52.278;21.056;2023-06-10T16:05:18;28.17;34.60
67354;SHT30;54238;52.278;21.056;2023-06-10T16:07:45;28.16;34.75
67354;SHT30;54238;52.278;21.056;2023-06-10T16:10:17;28.37;34.81
67354;SHT30;54238;52.278;21.056;2023-06-10T16:12:47;28.66;34.57
67354;SHT30;54238;52.278;21.056;2023-06-10T16:15:19;28.94;34.47
67354;SHT30;54238;52.278;21.056;2023-06-10T16:17:53;29.15;33.89
67354;SHT30;54238;52.278;21.056;2023-06-10T16:20:24;29.20;33.72
67354;SHT30;54238;52.278;21.056;2023-06-10T16:22:56;29.29;33.76
67354;SHT30;54238;52.278;21.056;2023-06-10T16:25:24;29.43;33.58
67354;SHT30;54238;52.278;21.056;2023-06-10T16:27:53;29.43;33.43
67354;SHT30;54238;52.278;21.056;2023-06-10T16:30:23;29.47;33.65
67354;SHT30;54238;52.278;21.056;2023-06-10T16:32:53;29.59;33.67
67354;SHT30;54238;52.278;21.056;2023-06-10T16:35:20;29.55;32.67
67354;SHT30;54238;52.278;21.056;2023-06-10T16:37:50;29.30;31.43
67354;SHT30;54238;52.278;21.056;2023-06-10T16:40:24;29.12;31.55
67354;SHT30;54238;52.278;21.056;2023-06-10T16:42:54;28.98;32.26
67354;SHT30;54238;52.278;21.056;2023-06-10T16:45:26;28.85;32.91